Terminal Aerodrome Forecast
Issued by NWS

Home | Current Version | Previous Version | Text Only | Print | Product List | Glossary On
Versions: 1 2 3 4 5 6 7 8 9 10 11 12 13 14 15 16 17
000
FTUS46 KSEW 022300 RRA
TAFBFI
TAF
KBFI 022346Z 0300/0324 19012G20KT P6SM VCSH BKN080 OVC100
     FM030300 17005KT P6SM VCSH BKN025 OVC035
     FM030600 17005KT P6SM SCT030 BKN050
     FM031200 15004KT P6SM OVC025
     FM031800 18006KT P6SM BKN035
     FM032100 30006KT P6SM SCT050=

USA.gov is the U.S. government's official web portal to all federal, state and local government web resources and services.